Terminal Aerodrome Forecast
Issued by NWS

Home | Current Version | Previous Version | Text Only | Print | Product List | Glossary On
Versions: 1 2 3 4 5 6 7 8 9 10 11 12 13 14 15 16 17 18 19 20 21 22 23 24 25 26 27 28 29 30 31 32 33 34 35 36
000
FTUS41 KBOX 282210 AAA
TAFACK
TAF AMD
KACK 282210Z 2822/2918 21014KT P6SM SCT025 BKN120
     FM290300 24009KT 6SM BR BKN030
     FM290800 27006KT 6SM BR BKN035
     FM291200 33006KT 6SM BR SCT250
     FM291500 00000KT P6SM SCT250=

USA.gov is the U.S. government's official web portal to all federal, state and local government web resources and services.